createdAt,value
2022-10-30T00:02:40.250Z,15.64
2022-10-30T00:05:46.140Z,15.68
2022-10-30T00:08:50.228Z,15.62
2022-10-30T00:11:54.131Z,15.57
2022-10-30T00:14:57.995Z,15.52
2022-10-30T00:18:02.644Z,15.49
2022-10-30T00:21:08.933Z,15.45
2022-10-30T00:24:12.763Z,15.43
2022-10-30T00:27:16.814Z,15.41
2022-10-30T00:30:20.999Z,15.38
2022-10-30T00:33:25.003Z,15.35
2022-10-30T00:36:28.865Z,15.33
2022-10-30T00:39:32.421Z,15.29
2022-10-30T00:42:36.336Z,15.25
2022-10-30T00:45:40.444Z,15.26
2022-10-30T00:48:48.479Z,15.25
2022-10-30T00:51:54.483Z,15.24
2022-10-30T00:55:03.343Z,15.18
2022-10-30T00:58:13.311Z,15.17
2022-10-30T01:01:22.236Z,15.15
2022-10-30T01:04:29.935Z,15.17
2022-10-30T01:07:34.475Z,15.13
2022-10-30T01:10:39.230Z,15.10
2022-10-30T01:13:46.994Z,15.08
2022-10-30T01:17:18.461Z,15.11
2022-10-30T01:20:40.899Z,15.10
2022-10-30T01:24:00.067Z,15.14
2022-10-30T01:27:30.852Z,15.16
2022-10-30T01:30:56.444Z,15.19
2022-10-30T01:34:14.009Z,15.25
2022-10-30T01:37:21.016Z,15.21
2022-10-30T01:40:25.916Z,15.23
2022-10-30T01:43:31.630Z,15.21
2022-10-30T01:46:47.126Z,15.23
2022-10-30T01:50:15.734Z,15.22
2022-10-30T01:53:40.836Z,15.25
2022-10-30T01:57:34.840Z,15.20
2022-10-30T02:00:42.196Z,15.20
2022-10-30T02:03:46.685Z,15.21
2022-10-30T02:06:51.411Z,15.26
2022-10-30T02:09:55.720Z,15.26
2022-10-30T02:12:59.894Z,15.31
2022-10-30T02:16:04.307Z,15.30
2022-10-30T02:19:08.384Z,15.26
2022-10-30T02:22:12.753Z,15.31
2022-10-30T02:25:16.751Z,15.31
2022-10-30T02:28:20.789Z,15.26
2022-10-30T02:31:24.629Z,15.27
2022-10-30T02:34:29.077Z,15.21
2022-10-30T02:37:35.615Z,15.21
2022-10-30T02:40:39.405Z,15.19
2022-10-30T02:43:43.278Z,15.17
2022-10-30T02:46:47.108Z,15.11
2022-10-30T02:49:51.073Z,15.10
2022-10-30T02:52:55.648Z,15.10
2022-10-30T02:56:04.653Z,15.11
2022-10-30T02:59:08.458Z,15.14
2022-10-30T03:02:12.674Z,15.18
2022-10-30T03:05:16.632Z,15.30
2022-10-30T03:08:20.760Z,15.29
2022-10-30T03:11:24.694Z,15.26
2022-10-30T03:14:28.448Z,15.24
2022-10-30T03:17:32.474Z,15.22
2022-10-30T03:20:36.607Z,15.20
2022-10-30T03:23:40.828Z,15.14
2022-10-30T03:26:45.271Z,15.11
2022-10-30T03:29:49.309Z,15.06
2022-10-30T03:32:53.117Z,14.99
2022-10-30T03:35:57.534Z,14.95
2022-10-30T03:39:01.696Z,14.94
2022-10-30T03:42:05.589Z,14.94
2022-10-30T03:45:10.061Z,14.85
2022-10-30T03:48:13.986Z,14.78
2022-10-30T03:51:17.802Z,14.78
2022-10-30T03:54:21.528Z,14.80
2022-10-30T03:57:25.344Z,14.87
2022-10-30T04:00:29.222Z,14.83
2022-10-30T04:03:34.393Z,14.86
2022-10-30T04:06:38.697Z,14.82
2022-10-30T04:09:45.466Z,14.81
2022-10-30T04:12:49.249Z,14.81
2022-10-30T04:15:55.985Z,14.83
2022-10-30T04:19:01.034Z,14.75
2022-10-30T04:22:04.807Z,14.72
2022-10-30T04:25:09.360Z,14.72
2022-10-30T04:28:14.090Z,14.74
2022-10-30T04:31:18.128Z,14.76
2022-10-30T04:34:22.291Z,14.80
2022-10-30T04:37:26.494Z,14.84
2022-10-30T04:40:32.985Z,14.82
2022-10-30T04:43:37.117Z,14.81
2022-10-30T04:46:40.802Z,14.80
2022-10-30T04:49:44.919Z,14.81
2022-10-30T04:52:49.135Z,14.84
2022-10-30T04:55:54.342Z,14.85
2022-10-30T04:58:58.033Z,14.86
2022-10-30T05:02:01.976Z,14.88
2022-10-30T05:05:06.536Z,14.81
2022-10-30T05:08:10.966Z,14.76
2022-10-30T05:11:15.280Z,14.68
2022-10-30T05:14:19.194Z,14.69
2022-10-30T05:17:23.468Z,14.74
2022-10-30T05:20:27.133Z,14.75
2022-10-30T05:23:30.957Z,14.76
2022-10-30T05:26:34.876Z,14.76
2022-10-30T05:29:38.638Z,14.75
2022-10-30T05:32:42.563Z,14.76
2022-10-30T05:35:46.563Z,14.69
2022-10-30T05:38:50.992Z,14.68
2022-10-30T05:41:54.733Z,14.69
2022-10-30T05:45:01.250Z,14.96
2022-10-30T05:48:06.943Z,15.04
2022-10-30T05:51:11.020Z,15.09
2022-10-30T05:54:14.811Z,15.08
2022-10-30T05:57:18.542Z,15.06
2022-10-30T06:00:22.521Z,15.05
2022-10-30T06:03:26.563Z,15.08
2022-10-30T06:06:30.487Z,15.10
2022-10-30T06:09:34.473Z,15.08
2022-10-30T06:12:38.136Z,15.11
2022-10-30T06:15:41.960Z,15.17
2022-10-30T06:18:45.730Z,15.09
2022-10-30T06:21:49.577Z,15.06
2022-10-30T06:24:53.598Z,15.02
2022-10-30T06:27:58.802Z,15.01
2022-10-30T06:31:02.956Z,14.96
2022-10-30T06:34:07.205Z,15.02
2022-10-30T06:37:11.658Z,15.00
2022-10-30T06:40:16.738Z,14.98
2022-10-30T06:43:20.972Z,14.99
2022-10-30T06:46:27.467Z,15.07
2022-10-30T06:49:34.511Z,15.06
2022-10-30T06:52:39.061Z,15.05
2022-10-30T06:55:42.980Z,15.08
2022-10-30T06:58:47.158Z,15.16
2022-10-30T07:01:54.244Z,15.26
2022-10-30T07:05:01.753Z,15.23
2022-10-30T07:08:05.995Z,15.21
2022-10-30T07:11:10.093Z,15.21
2022-10-30T07:14:13.975Z,15.22
2022-10-30T07:17:17.927Z,15.29
2022-10-30T07:20:22.196Z,15.34
2022-10-30T07:23:26.296Z,15.33
2022-10-30T07:26:30.409Z,15.26
2022-10-30T07:29:34.698Z,15.25
2022-10-30T07:32:38.914Z,15.28
2022-10-30T07:35:43.206Z,15.35
2022-10-30T07:38:51.438Z,15.42
2022-10-30T07:41:55.393Z,15.49
2022-10-30T07:44:59.828Z,15.48
2022-10-30T07:48:04.284Z,15.50
2022-10-30T07:51:08.691Z,15.52
2022-10-30T07:54:12.883Z,15.53
2022-10-30T07:57:16.895Z,15.54
2022-10-30T08:00:21.128Z,15.51
2022-10-30T08:03:25.065Z,15.52
2022-10-30T08:06:29.069Z,15.55
2022-10-30T08:09:32.823Z,15.59
2022-10-30T08:12:38.312Z,15.68
2022-10-30T08:15:42.915Z,15.80
2022-10-30T08:18:47.245Z,15.89
2022-10-30T08:21:54.816Z,15.92
2022-10-30T08:25:01.966Z,15.90
2022-10-30T08:28:07.457Z,15.85
2022-10-30T08:31:11.355Z,15.84
2022-10-30T08:34:15.193Z,15.90
2022-10-30T08:37:19.284Z,15.89
2022-10-30T08:40:24.509Z,15.87
2022-10-30T08:43:28.727Z,15.91
2022-10-30T08:46:32.751Z,16.11
2022-10-30T08:49:36.580Z,16.39
2022-10-30T08:52:40.577Z,16.72
2022-10-30T08:55:44.583Z,16.91
2022-10-30T08:58:50.446Z,17.07
2022-10-30T09:01:54.475Z,17.19
2022-10-30T09:04:58.591Z,17.27
2022-10-30T09:08:03.286Z,17.41
2022-10-30T09:11:07.304Z,17.59
2022-10-30T09:14:11.606Z,17.77
2022-10-30T09:17:15.813Z,17.92
2022-10-30T09:20:19.457Z,18.09
2022-10-30T09:23:23.485Z,18.20
2022-10-30T09:26:29.115Z,18.28
2022-10-30T09:29:33.510Z,18.34
2022-10-30T09:32:37.323Z,18.40
2022-10-30T09:35:41.103Z,18.46
2022-10-30T09:38:45.569Z,18.57
2022-10-30T09:42:17.474Z,18.64
2022-10-30T09:45:53.515Z,18.74
2022-10-30T09:49:19.451Z,18.88
2022-10-30T09:52:34.481Z,18.99
2022-10-30T09:55:55.623Z,19.14
2022-10-30T09:59:00.896Z,19.25
2022-10-30T10:02:26.353Z,19.42
2022-10-30T10:06:02.474Z,19.54
2022-10-30T10:09:17.081Z,19.65
2022-10-30T10:12:33.743Z,19.74
2022-10-30T10:15:45.732Z,19.82
2022-10-30T10:19:00.486Z,19.90
2022-10-30T10:22:17.287Z,19.98
2022-10-30T10:25:21.490Z,20.01
2022-10-30T10:28:44.452Z,20.10
2022-10-30T10:32:06.814Z,20.25
2022-10-30T10:35:37.873Z,20.29
2022-10-30T10:39:05.032Z,20.36
2022-10-30T10:42:35.256Z,20.39
2022-10-30T10:46:12.898Z,20.50
2022-10-30T10:49:24.920Z,20.59
2022-10-30T10:52:36.837Z,20.66
2022-10-30T10:55:44.277Z,20.74
2022-10-30T10:59:01.220Z,20.78
2022-10-30T11:02:05.578Z,20.82
2022-10-30T11:05:24.585Z,20.86
2022-10-30T11:08:31.216Z,20.88
2022-10-30T11:11:35.305Z,20.87
2022-10-30T11:14:39.651Z,20.90
2022-10-30T11:18:10.405Z,20.93
2022-10-30T11:21:23.670Z,20.96
2022-10-30T11:24:35.805Z,21.00
2022-10-30T11:27:39.875Z,21.10
2022-10-30T11:30:44.001Z,21.10
2022-10-30T11:33:48.496Z,21.10
2022-10-30T11:36:54.428Z,21.11
2022-10-30T11:40:21.027Z,21.12
2022-10-30T11:43:26.205Z,21.17
2022-10-30T11:46:30.158Z,21.20
2022-10-30T11:49:46.198Z,21.29
2022-10-30T11:52:55.294Z,21.36
2022-10-30T11:55:59.641Z,21.34
2022-10-30T11:59:05.510Z,21.33
2022-10-30T12:02:28.363Z,21.39
2022-10-30T12:05:32.616Z,21.36
2022-10-30T12:08:36.314Z,21.36
2022-10-30T12:11:44.405Z,21.30
2022-10-30T12:14:48.357Z,21.28
2022-10-30T12:18:16.363Z,21.30
2022-10-30T12:21:20.998Z,21.29
2022-10-30T12:24:34.502Z,21.29
2022-10-30T12:27:38.731Z,21.36
2022-10-30T12:31:00.216Z,21.47
2022-10-30T12:34:22.113Z,21.50
2022-10-30T12:37:32.254Z,21.42
2022-10-30T12:40:42.761Z,21.43
2022-10-30T12:43:55.911Z,21.39
2022-10-30T12:47:18.331Z,21.39
2022-10-30T12:51:03.956Z,21.34
2022-10-30T12:54:22.051Z,21.29
2022-10-30T12:57:36.027Z,21.28
2022-10-30T13:00:54.621Z,21.30
2022-10-30T13:04:39.521Z,21.27
2022-10-30T13:07:52.436Z,21.21
2022-10-30T13:11:04.562Z,21.17
2022-10-30T13:14:19.037Z,21.12
2022-10-30T13:17:23.692Z,21.07
2022-10-30T13:20:30.615Z,21.10
2022-10-30T13:23:40.116Z,21.10
2022-10-30T13:26:58.645Z,21.11
2022-10-30T13:30:10.542Z,21.11
2022-10-30T13:33:31.649Z,21.09
2022-10-30T13:36:55.887Z,21.09
2022-10-30T13:40:17.295Z,21.06
2022-10-30T13:43:41.828Z,21.02
2022-10-30T13:47:08.434Z,20.92
2022-10-30T13:50:50.959Z,20.85
2022-10-30T13:54:08.637Z,20.82
2022-10-30T13:57:32.809Z,20.82
2022-10-30T14:00:51.726Z,20.81
2022-10-30T14:04:01.939Z,20.77
2022-10-30T14:07:33.448Z,20.70
2022-10-30T14:10:40.376Z,20.64
2022-10-30T14:14:03.453Z,20.61
2022-10-30T14:17:14.372Z,20.56
2022-10-30T14:20:26.573Z,20.51
2022-10-30T14:23:35.113Z,20.53
2022-10-30T14:26:49.979Z,20.56
2022-10-30T14:29:57.935Z,20.55
2022-10-30T14:33:02.497Z,20.48
2022-10-30T14:36:46.427Z,20.42
2022-10-30T14:39:51.721Z,20.32
2022-10-30T14:43:02.231Z,20.25
2022-10-30T14:46:30.024Z,20.19
2022-10-30T14:49:43.011Z,20.14
2022-10-30T14:53:21.498Z,20.08
2022-10-30T14:56:36.412Z,20.03
2022-10-30T14:59:40.199Z,19.99
2022-10-30T15:03:14.825Z,19.92
2022-10-30T15:06:43.501Z,19.87
2022-10-30T15:09:47.701Z,19.81
2022-10-30T15:13:02.378Z,19.75
2022-10-30T15:16:09.003Z,19.67
2022-10-30T15:19:15.626Z,19.56
2022-10-30T15:22:23.200Z,19.45
2022-10-30T15:25:34.466Z,19.32
2022-10-30T15:28:39.102Z,19.21
2022-10-30T15:31:43.084Z,19.14
2022-10-30T15:35:15.810Z,19.07
2022-10-30T15:38:19.736Z,19.02
2022-10-30T15:41:23.574Z,18.96
2022-10-30T15:44:31.895Z,18.89
2022-10-30T15:47:36.124Z,18.81
2022-10-30T15:50:44.696Z,18.74
2022-10-30T15:53:51.043Z,18.63
2022-10-30T15:57:36.545Z,18.53
2022-10-30T16:00:27.869Z,18.43
2022-10-30T16:03:32.729Z,18.34
2022-10-30T16:06:37.309Z,18.27
2022-10-30T16:09:52.616Z,18.22
2022-10-30T16:12:58.217Z,18.17
2022-10-30T16:16:04.013Z,18.10
2022-10-30T16:19:08.112Z,18.04
2022-10-30T16:22:16.920Z,17.98
2022-10-30T16:25:21.459Z,17.92
2022-10-30T16:28:29.986Z,17.87
2022-10-30T16:31:36.025Z,17.82
2022-10-30T16:34:41.700Z,17.80
2022-10-30T16:37:46.561Z,17.75
2022-10-30T16:40:51.443Z,17.71
2022-10-30T16:44:14.100Z,17.66
2022-10-30T16:47:18.378Z,17.61
2022-10-30T16:50:22.335Z,17.57
2022-10-30T16:53:27.812Z,17.53
2022-10-30T16:56:32.644Z,17.51
2022-10-30T16:59:43.965Z,17.46
2022-10-30T17:02:50.333Z,17.45
2022-10-30T17:06:04.748Z,17.41
2022-10-30T17:09:24.881Z,17.36
2022-10-30T17:12:29.581Z,17.31
2022-10-30T17:15:33.393Z,17.28
2022-10-30T17:18:38.517Z,17.26
2022-10-30T17:21:42.822Z,17.20
2022-10-30T17:24:47.715Z,17.15
2022-10-30T17:27:51.759Z,17.13
2022-10-30T17:30:56.468Z,17.09
2022-10-30T17:34:16.133Z,17.06
2022-10-30T17:37:20.320Z,17.03
2022-10-30T17:40:24.157Z,17.04
2022-10-30T17:43:30.029Z,17.08
2022-10-30T17:46:34.243Z,17.13
2022-10-30T17:49:38.264Z,17.27
2022-10-30T17:52:42.584Z,17.30
2022-10-30T17:55:51.668Z,17.25
2022-10-30T17:58:58.564Z,17.21
2022-10-30T18:02:02.567Z,17.20
2022-10-30T18:05:15.233Z,17.19
2022-10-30T18:08:19.353Z,17.17
2022-10-30T18:11:24.564Z,17.18
2022-10-30T18:14:28.316Z,17.20
2022-10-30T18:17:32.564Z,17.17
2022-10-30T18:20:36.627Z,17.11
2022-10-30T18:23:56.156Z,17.02
2022-10-30T18:26:59.825Z,16.96
2022-10-30T18:30:04.305Z,16.93
2022-10-30T18:33:10.706Z,16.85
2022-10-30T18:36:23.890Z,16.81
2022-10-30T18:39:27.956Z,16.77
2022-10-30T18:42:32.276Z,16.75
2022-10-30T18:45:38.117Z,16.74
2022-10-30T18:48:43.005Z,16.71
2022-10-30T18:51:47.333Z,16.73
2022-10-30T18:54:51.236Z,16.68
2022-10-30T18:57:55.153Z,16.64
2022-10-30T19:01:11.496Z,16.56
2022-10-30T19:04:21.644Z,16.48
2022-10-30T19:07:26.855Z,16.45
2022-10-30T19:10:33.890Z,16.42
2022-10-30T19:13:37.827Z,16.35
2022-10-30T19:16:41.977Z,16.29
2022-10-30T19:19:46.123Z,16.27
2022-10-30T19:22:50.024Z,16.26
2022-10-30T19:25:55.139Z,16.26
2022-10-30T19:28:58.993Z,16.21
2022-10-30T19:32:02.873Z,16.16
2022-10-30T19:35:07.762Z,16.12
2022-10-30T19:38:13.037Z,16.06
2022-10-30T19:41:16.988Z,16.02
2022-10-30T19:44:20.766Z,15.94
2022-10-30T19:47:24.635Z,15.90
2022-10-30T19:50:37.604Z,15.89
2022-10-30T19:53:41.307Z,15.79
2022-10-30T19:56:45.274Z,15.73
2022-10-30T19:59:49.323Z,15.68
2022-10-30T20:02:55.571Z,15.68
2022-10-30T20:05:59.758Z,15.66
2022-10-30T20:09:05.339Z,15.65
2022-10-30T20:12:09.434Z,15.64
2022-10-30T20:15:15.961Z,15.67
2022-10-30T20:18:23.243Z,15.72
2022-10-30T20:21:27.417Z,15.71
2022-10-30T20:24:31.951Z,15.60
2022-10-30T20:27:36.057Z,15.57
2022-10-30T20:30:40.409Z,15.54
2022-10-30T20:33:44.270Z,15.50
2022-10-30T20:36:48.567Z,15.49
2022-10-30T20:39:52.591Z,15.48
2022-10-30T20:43:02.662Z,15.44
2022-10-30T20:46:09.317Z,15.42
2022-10-30T20:49:18.095Z,15.39
2022-10-30T20:52:22.362Z,15.36
2022-10-30T20:55:27.171Z,15.33
2022-10-30T20:58:31.319Z,15.32
2022-10-30T21:01:35.345Z,15.29
2022-10-30T21:04:40.101Z,15.26
2022-10-30T21:07:44.041Z,15.25
2022-10-30T21:10:47.948Z,15.22
2022-10-30T21:13:56.298Z,15.21
2022-10-30T21:17:00.387Z,15.17
2022-10-30T21:20:04.695Z,15.13
2022-10-30T21:23:09.079Z,15.14
2022-10-30T21:26:13.355Z,15.08
2022-10-30T21:29:17.423Z,15.05
2022-10-30T21:32:21.356Z,15.01
2022-10-30T21:35:25.305Z,15.01
2022-10-30T21:38:29.455Z,14.99
2022-10-30T21:41:33.426Z,14.97
2022-10-30T21:44:37.336Z,14.95
2022-10-30T21:47:41.133Z,14.95
2022-10-30T21:50:45.008Z,14.94
2022-10-30T21:53:49.323Z,14.95
2022-10-30T21:56:53.282Z,14.95
2022-10-30T22:00:00.022Z,14.93
2022-10-30T22:03:09.912Z,14.91
2022-10-30T22:06:16.078Z,14.93
2022-10-30T22:09:19.992Z,14.93
2022-10-30T22:12:23.770Z,14.92
2022-10-30T22:15:27.785Z,14.93
2022-10-30T22:18:31.777Z,14.93
2022-10-30T22:21:35.854Z,14.91
2022-10-30T22:24:39.820Z,14.89
2022-10-30T22:27:45.810Z,14.87
2022-10-30T22:30:50.641Z,14.84
2022-10-30T22:33:54.452Z,14.81
2022-10-30T22:36:58.484Z,14.78
2022-10-30T22:40:02.648Z,14.79
2022-10-30T22:43:06.799Z,14.78
2022-10-30T22:46:11.690Z,14.75
2022-10-30T22:49:16.635Z,14.72
2022-10-30T22:52:20.603Z,14.71
2022-10-30T22:55:24.856Z,14.67
2022-10-30T22:58:29.949Z,14.67
2022-10-30T23:01:36.719Z,14.70
2022-10-30T23:04:41.968Z,14.69
2022-10-30T23:07:46.013Z,14.65
2022-10-30T23:10:53.803Z,14.62
2022-10-30T23:13:57.737Z,14.57
2022-10-30T23:17:01.701Z,14.53
2022-10-30T23:20:07.532Z,14.48
2022-10-30T23:23:12.153Z,14.53
2022-10-30T23:26:19.014Z,14.49
2022-10-30T23:29:23.099Z,14.44
2022-10-30T23:32:26.936Z,14.40
2022-10-30T23:35:30.929Z,14.38
2022-10-30T23:38:34.593Z,14.35
2022-10-30T23:41:38.323Z,14.33
2022-10-30T23:44:42.092Z,14.33
2022-10-30T23:47:45.909Z,14.29
2022-10-30T23:50:49.943Z,14.26
2022-10-30T23:53:54.279Z,14.22
2022-10-30T23:56:58.216Z,14.24
